Gravois Mills, Missouri
Current Conditions -  °F | °C
As of 7:35 AM on Sunday 23 Nov 2014 (Local Time) from KAIZ Reporting Station
Overcast Overcast  
Wind Chill: 54°   Ceiling: 1000
Heat Index: 54°   Visibility: 10mi
Dew Point: 50°   Wind: 6mph
Humidity: 88%   Direction: 150°SSE
Pressure: 29.59"   Gusts: NA
Location:  38.31°N, 92.83°W
Report Text: KAIZ 231335Z AUTO 15005KT 10SM BKN010 OVC016 12/10 A2959 RMK AO1
Loading
Personal Weather Stations






























Interactive Weather Map New forecast layout! Learn more

10-Day Weather Forecast

Advertisements
Track Severe Weather on mobile